createdAt,value
2019-05-07T00:00:45.569Z,93.20
2019-05-07T00:03:15.896Z,93.10
2019-05-07T00:05:46.240Z,93.10
2019-05-07T00:08:16.574Z,93.00
2019-05-07T00:10:46.919Z,92.90
2019-05-07T00:13:17.244Z,92.80
2019-05-07T00:15:47.587Z,92.80
2019-05-07T00:18:17.915Z,92.80
2019-05-07T00:20:48.275Z,92.80
2019-05-07T00:23:18.602Z,92.80
2019-05-07T00:25:49.009Z,92.90
2019-05-07T00:28:19.336Z,93.00
2019-05-07T00:30:51.978Z,93.00
2019-05-07T00:33:22.811Z,93.00
2019-05-07T00:35:54.835Z,93.10
2019-05-07T00:38:26.795Z,93.10
2019-05-07T00:41:02.820Z,93.00
2019-05-07T00:43:52.522Z,93.10
2019-05-07T00:46:24.817Z,93.10
2019-05-07T00:48:55.139Z,93.10
2019-05-07T00:51:27.115Z,93.10
2019-05-07T00:53:57.506Z,93.20
2019-05-07T00:56:27.927Z,93.20
2019-05-07T00:58:58.781Z,93.20
2019-05-07T01:01:29.118Z,93.20
2019-05-07T01:03:59.438Z,93.30
2019-05-07T01:06:49.114Z,93.30
2019-05-07T01:09:19.434Z,93.30
2019-05-07T01:11:49.779Z,93.70
2019-05-07T01:14:27.915Z,93.40
2019-05-07T01:16:58.256Z,93.40
2019-05-07T01:19:28.575Z,93.40
2019-05-07T01:21:58.916Z,93.30
2019-05-07T01:24:29.240Z,93.20
2019-05-07T01:26:59.577Z,93.20
2019-05-07T01:29:29.898Z,93.10
2019-05-07T01:32:04.736Z,93.10
2019-05-07T01:34:39.878Z,93.10
2019-05-07T01:37:12.293Z,93.10
2019-05-07T01:39:42.337Z,93.20
2019-05-07T01:42:13.629Z,93.20
2019-05-07T01:44:43.943Z,93.30
2019-05-07T01:47:14.275Z,93.40
2019-05-07T01:49:44.592Z,93.40
2019-05-07T01:52:14.918Z,93.40
2019-05-07T01:54:47.345Z,93.40
2019-05-07T01:57:17.263Z,93.40
2019-05-07T01:59:47.587Z,93.40
2019-05-07T02:05:27.468Z,93.50
2019-05-07T02:07:59.443Z,93.50
2019-05-07T02:10:34.082Z,93.60
2019-05-07T02:13:23.747Z,93.60
2019-05-07T02:16:00.850Z,93.60
2019-05-07T02:18:26.094Z,93.60
2019-05-07T02:20:56.420Z,93.50
2019-05-07T02:23:26.758Z,93.60
2019-05-07T02:25:57.076Z,93.60
2019-05-07T02:28:27.411Z,93.80
2019-05-07T02:30:57.732Z,93.90
2019-05-07T02:33:28.056Z,94.00
2019-05-07T02:36:14.179Z,94.00
2019-05-07T02:38:45.927Z,94.00
2019-05-07T02:41:25.277Z,94.00
2019-05-07T02:43:59.639Z,94.10
2019-05-07T02:46:36.449Z,94.10
2019-05-07T02:52:24.758Z,94.20
2019-05-07T02:54:59.360Z,94.20
2019-05-07T02:57:29.964Z,94.20
2019-05-07T03:00:04.073Z,94.20
2019-05-07T03:02:33.194Z,94.30
2019-05-07T03:05:05.207Z,94.30
2019-05-07T03:07:36.810Z,94.30
2019-05-07T03:10:17.751Z,94.20
2019-05-07T03:12:48.258Z,94.20
2019-05-07T03:15:18.573Z,94.10
2019-05-07T03:17:48.901Z,94.10
2019-05-07T03:20:22.983Z,94.10
2019-05-07T03:22:53.998Z,94.20
2019-05-07T03:25:26.012Z,94.10
2019-05-07T03:28:15.693Z,94.10
2019-05-07T03:33:56.375Z,93.90
2019-05-07T03:36:47.711Z,93.80
2019-05-07T03:39:15.773Z,93.80
2019-05-07T03:41:46.092Z,93.70
2019-05-07T03:44:23.836Z,93.90
2019-05-07T03:47:02.119Z,93.80
2019-05-07T03:49:34.246Z,94.00
2019-05-07T03:52:04.861Z,94.00
2019-05-07T03:54:35.144Z,94.10
2019-05-07T03:57:11.246Z,94.20
2019-05-07T03:59:37.481Z,94.30
2019-05-07T04:02:27.144Z,94.30
2019-05-07T04:04:57.467Z,94.30
2019-05-07T04:07:47.153Z,94.30
2019-05-07T04:10:17.881Z,94.30
2019-05-07T04:12:48.205Z,94.20
2019-05-07T04:15:19.482Z,94.20
2019-05-07T04:17:53.909Z,94.20
2019-05-07T04:20:24.230Z,94.20
2019-05-07T04:22:54.660Z,94.30
2019-05-07T04:25:26.640Z,94.30
2019-05-07T04:27:58.603Z,94.20
2019-05-07T04:30:33.092Z,94.10
2019-05-07T04:33:13.029Z,94.10
2019-05-07T04:35:44.014Z,94.10
2019-05-07T04:38:14.344Z,94.10
2019-05-07T04:40:44.673Z,93.90
2019-05-07T04:43:15.013Z,93.90
2019-05-07T04:45:45.339Z,94.00
2019-05-07T04:48:15.672Z,94.00
2019-05-07T04:50:48.147Z,94.00
2019-05-07T04:53:18.445Z,94.10
2019-05-07T04:55:48.781Z,94.10
2019-05-07T04:58:19.113Z,94.10
2019-05-07T05:00:49.442Z,94.20
2019-05-07T05:06:14.739Z,94.10
2019-05-07T05:08:45.058Z,94.10
2019-05-07T05:11:15.394Z,94.10
2019-05-07T05:13:45.734Z,94.20
2019-05-07T05:16:28.185Z,94.10
2019-05-07T05:18:58.652Z,94.10
2019-05-07T05:21:47.152Z,94.00
2019-05-07T05:24:42.417Z,93.90
2019-05-07T05:27:12.897Z,93.90
2019-05-07T05:29:43.227Z,93.80
2019-05-07T05:32:13.559Z,93.60
2019-05-07T05:34:43.886Z,93.60
2019-05-07T05:37:14.222Z,93.70
2019-05-07T05:39:44.548Z,93.50
2019-05-07T05:42:16.523Z,93.50
2019-05-07T05:44:46.856Z,93.40
2019-05-07T05:47:17.183Z,93.00
2019-05-07T05:49:47.508Z,92.20
2019-05-07T05:52:35.565Z,91.80
2019-05-07T05:55:08.253Z,91.20
2019-05-07T05:57:42.329Z,91.30
2019-05-07T06:00:32.825Z,91.20
2019-05-07T06:03:22.592Z,91.30
2019-05-07T06:05:54.339Z,91.10
2019-05-07T06:08:34.815Z,91.20
2019-05-07T06:11:06.777Z,91.20
2019-05-07T06:13:41.923Z,91.00
2019-05-07T06:16:16.584Z,90.80
2019-05-07T06:19:03.781Z,90.90
2019-05-07T06:21:52.621Z,91.10
2019-05-07T06:24:39.984Z,90.80
2019-05-07T06:27:12.259Z,91.20
2019-05-07T06:30:04.789Z,91.00
2019-05-07T06:32:33.772Z,90.50
2019-05-07T06:35:05.839Z,90.70
2019-05-07T06:37:36.545Z,90.70
2019-05-07T06:40:19.318Z,90.60
2019-05-07T06:42:49.809Z,90.30
2019-05-07T06:45:34.740Z,90.20
2019-05-07T06:48:03.066Z,90.10
2019-05-07T06:50:33.481Z,90.10
2019-05-07T06:53:03.902Z,89.10
2019-05-07T06:55:35.205Z,88.60
2019-05-07T06:58:07.412Z,87.10
2019-05-07T07:00:39.387Z,86.80
2019-05-07T07:03:12.727Z,86.20
2019-05-07T07:05:44.781Z,85.50
2019-05-07T07:08:23.085Z,85.50
2019-05-07T07:11:02.621Z,85.00
2019-05-07T07:13:33.429Z,85.10
2019-05-07T07:16:03.763Z,84.40
2019-05-07T07:18:47.619Z,83.50
2019-05-07T07:21:06.203Z,83.70
2019-05-07T07:23:36.542Z,83.10
2019-05-07T07:26:09.827Z,82.10
2019-05-07T07:28:40.169Z,82.20
2019-05-07T07:31:12.969Z,82.50
2019-05-07T07:33:58.287Z,82.70
2019-05-07T07:36:32.040Z,81.60
2019-05-07T07:39:03.272Z,80.30
2019-05-07T07:41:42.765Z,78.90
2019-05-07T07:44:13.500Z,79.10
2019-05-07T07:46:43.914Z,79.10
2019-05-07T07:49:15.231Z,76.60
2019-05-07T07:51:45.978Z,77.90
2019-05-07T07:54:16.496Z,78.10
2019-05-07T07:56:55.596Z,77.20
2019-05-07T07:59:36.870Z,75.20
2019-05-07T08:02:12.388Z,75.50
2019-05-07T08:04:42.841Z,74.90
2019-05-07T08:07:14.246Z,74.90
2019-05-07T08:09:44.511Z,74.70
2019-05-07T08:12:16.468Z,73.20
2019-05-07T08:14:46.807Z,73.50
2019-05-07T08:17:17.149Z,72.20
2019-05-07T08:19:47.553Z,71.00
2019-05-07T08:22:17.902Z,70.80
2019-05-07T08:24:48.242Z,69.50
2019-05-07T08:27:18.574Z,68.90
2019-05-07T08:29:48.906Z,70.30
2019-05-07T08:32:23.648Z,70.60
2019-05-07T08:34:55.623Z,70.00
2019-05-07T08:37:25.968Z,68.60
2019-05-07T08:39:56.302Z,67.90
2019-05-07T08:42:26.653Z,68.60
2019-05-07T08:44:58.670Z,67.10
2019-05-07T08:47:42.675Z,66.70
2019-05-07T08:50:13.226Z,66.10
2019-05-07T08:52:43.573Z,66.20
2019-05-07T08:55:13.965Z,66.20
2019-05-07T08:57:45.997Z,65.10
2019-05-07T09:00:22.212Z,65.40
2019-05-07T09:02:52.428Z,64.90
2019-05-07T09:05:22.895Z,64.00
2019-05-07T09:07:53.237Z,63.70
2019-05-07T09:10:23.583Z,62.50
2019-05-07T09:12:53.930Z,61.30
2019-05-07T09:15:24.263Z,59.60
2019-05-07T09:17:54.603Z,59.30
2019-05-07T09:20:24.938Z,57.50
2019-05-07T09:22:55.349Z,58.50
2019-05-07T09:25:25.690Z,57.50
2019-05-07T09:27:56.408Z,57.40
2019-05-07T09:30:44.480Z,57.50
2019-05-07T09:33:16.460Z,56.50
2019-05-07T09:35:48.467Z,56.90
2019-05-07T09:38:18.814Z,57.30
2019-05-07T09:40:49.155Z,57.70
2019-05-07T09:43:19.500Z,57.30
2019-05-07T09:45:49.834Z,57.80
2019-05-07T09:48:22.077Z,58.40
2019-05-07T09:50:53.093Z,56.70
2019-05-07T09:53:23.519Z,55.50
2019-05-07T09:55:53.862Z,56.70
2019-05-07T09:58:35.544Z,56.20
2019-05-07T10:00:56.302Z,56.50
2019-05-07T10:03:26.636Z,56.90
2019-05-07T10:05:56.979Z,56.50
2019-05-07T10:08:27.383Z,57.80
2019-05-07T10:10:57.792Z,57.40
2019-05-07T10:13:33.100Z,57.40
2019-05-07T10:16:04.305Z,57.40
2019-05-07T10:18:35.619Z,58.10
2019-05-07T10:21:06.030Z,56.20
2019-05-07T10:23:36.367Z,56.10
2019-05-07T10:26:06.947Z,54.60
2019-05-07T10:28:37.286Z,55.90
2019-05-07T10:31:07.627Z,55.00
2019-05-07T10:33:37.962Z,55.60
2019-05-07T10:36:08.302Z,54.70
2019-05-07T10:38:39.006Z,54.60
2019-05-07T10:41:12.147Z,54.70
2019-05-07T10:43:42.922Z,55.30
2019-05-07T10:46:23.731Z,55.70
2019-05-07T10:49:01.988Z,55.50
2019-05-07T10:51:32.428Z,55.20
2019-05-07T10:54:02.767Z,55.70
2019-05-07T10:56:33.275Z,56.50
2019-05-07T10:59:03.705Z,55.40
2019-05-07T11:01:39.505Z,54.30
2019-05-07T11:04:09.842Z,52.60
2019-05-07T11:06:41.782Z,53.50
2019-05-07T11:09:12.281Z,54.70
2019-05-07T11:11:42.629Z,54.40
2019-05-07T11:14:12.978Z,54.00
2019-05-07T11:19:59.545Z,53.30
2019-05-07T11:22:29.883Z,52.10
2019-05-07T11:25:02.864Z,52.20
2019-05-07T11:27:33.037Z,52.60
2019-05-07T11:30:05.328Z,52.70
2019-05-07T11:32:35.673Z,53.20
2019-05-07T11:35:09.073Z,53.30
2019-05-07T11:37:39.410Z,53.60
2019-05-07T11:40:12.952Z,53.70
2019-05-07T11:43:02.468Z,53.80
2019-05-07T11:45:34.752Z,53.80
2019-05-07T11:48:05.431Z,53.80
2019-05-07T11:50:37.408Z,53.60
2019-05-07T11:53:09.390Z,53.10
2019-05-07T11:55:42.047Z,53.30
2019-05-07T11:58:12.918Z,53.00
2019-05-07T12:01:03.614Z,54.80
2019-05-07T12:03:32.784Z,55.50
2019-05-07T12:06:03.129Z,56.10
2019-05-07T12:08:42.885Z,56.90
2019-05-07T12:11:05.512Z,56.70
2019-05-07T12:13:35.857Z,57.20
2019-05-07T12:16:06.203Z,56.70
2019-05-07T12:18:36.560Z,56.40
2019-05-07T12:21:20.040Z,57.00
2019-05-07T12:23:38.955Z,57.20
2019-05-07T12:26:09.290Z,56.70
2019-05-07T12:28:41.699Z,55.80
2019-05-07T12:31:13.478Z,56.40
2019-05-07T12:33:53.925Z,56.20
2019-05-07T12:36:24.253Z,55.70
2019-05-07T12:38:54.598Z,54.40
2019-05-07T12:41:33.870Z,54.00
2019-05-07T12:44:07.598Z,54.00
2019-05-07T12:46:38.286Z,53.00
2019-05-07T12:49:08.690Z,54.00
2019-05-07T12:51:43.893Z,54.10
2019-05-07T12:54:22.681Z,53.80
2019-05-07T12:56:53.117Z,52.20
2019-05-07T12:59:23.459Z,50.90
2019-05-07T13:01:55.455Z,51.20
2019-05-07T13:04:27.427Z,51.80
2019-05-07T13:07:02.582Z,53.00
2019-05-07T13:09:33.054Z,55.00
2019-05-07T13:12:03.396Z,58.30
2019-05-07T13:14:33.737Z,60.10
2019-05-07T13:17:04.079Z,61.80
2019-05-07T13:19:34.431Z,64.20
2019-05-07T13:22:04.843Z,66.30
2019-05-07T13:24:35.189Z,66.50
2019-05-07T13:27:05.600Z,66.00
2019-05-07T13:29:35.937Z,67.40
2019-05-07T13:32:06.284Z,67.00
2019-05-07T13:34:36.700Z,68.40
2019-05-07T13:37:12.747Z,69.00
2019-05-07T13:39:44.895Z,70.10
2019-05-07T13:42:32.982Z,72.50
2019-05-07T13:45:06.402Z,71.10
2019-05-07T13:47:37.750Z,67.40
2019-05-07T13:50:08.995Z,66.20
2019-05-07T13:52:39.607Z,65.30
2019-05-07T13:55:12.708Z,64.90
2019-05-07T13:57:43.238Z,65.00
2019-05-07T14:00:16.142Z,65.60
2019-05-07T14:02:46.467Z,64.80
2019-05-07T14:05:17.947Z,64.50
2019-05-07T14:07:48.567Z,64.60
2019-05-07T14:10:18.983Z,64.00
2019-05-07T14:12:51.998Z,63.60
2019-05-07T14:15:23.131Z,63.30
2019-05-07T14:17:55.112Z,61.30
2019-05-07T14:20:25.450Z,61.60
2019-05-07T14:22:55.793Z,61.00
2019-05-07T14:25:26.139Z,60.30
2019-05-07T14:27:58.822Z,59.10
2019-05-07T14:30:28.529Z,58.90
2019-05-07T14:33:05.938Z,59.20
2019-05-07T14:35:39.743Z,58.50
2019-05-07T14:38:13.834Z,58.20
2019-05-07T14:40:44.024Z,59.30
2019-05-07T14:43:18.964Z,59.30
2019-05-07T14:45:49.636Z,58.90
2019-05-07T14:48:19.983Z,59.10
2019-05-07T14:50:50.313Z,59.50
2019-05-07T14:53:22.373Z,59.50
2019-05-07T14:55:52.914Z,59.90
2019-05-07T14:58:23.270Z,60.20
2019-05-07T15:00:53.756Z,60.80
2019-05-07T15:03:24.227Z,61.10
2019-05-07T15:05:54.629Z,61.00
2019-05-07T15:08:25.025Z,61.10
2019-05-07T15:10:55.372Z,60.10
2019-05-07T15:13:25.706Z,60.00
2019-05-07T15:15:56.055Z,58.90
2019-05-07T15:18:44.382Z,57.60
2019-05-07T15:21:14.790Z,58.80
2019-05-07T15:23:45.537Z,59.10
2019-05-07T15:26:16.009Z,57.30
2019-05-07T15:28:52.140Z,57.70
2019-05-07T15:31:36.507Z,58.20
2019-05-07T15:34:06.851Z,57.30
2019-05-07T15:36:37.258Z,56.70
2019-05-07T15:39:08.064Z,57.10
2019-05-07T15:41:38.691Z,56.60
2019-05-07T15:44:09.031Z,56.50
2019-05-07T15:46:39.376Z,55.60
2019-05-07T15:49:09.778Z,54.90
2019-05-07T15:51:41.927Z,55.50
2019-05-07T15:54:12.945Z,56.00
2019-05-07T15:56:44.297Z,55.90
2019-05-07T15:59:16.276Z,56.50
2019-05-07T16:01:46.632Z,56.40
2019-05-07T16:04:22.400Z,55.40
2019-05-07T16:06:49.025Z,55.40
2019-05-07T16:09:19.369Z,55.20
2019-05-07T16:11:49.708Z,54.80
2019-05-07T16:14:26.892Z,54.30
2019-05-07T16:16:58.087Z,54.70
2019-05-07T16:19:29.103Z,55.30
2019-05-07T16:22:03.590Z,54.30
2019-05-07T16:24:33.112Z,54.80
2019-05-07T16:27:05.228Z,54.60
2019-05-07T16:29:36.009Z,54.90
2019-05-07T16:32:06.621Z,55.00
2019-05-07T16:34:37.032Z,54.40
2019-05-07T16:37:07.726Z,54.50
2019-05-07T16:39:38.188Z,52.40
2019-05-07T16:42:08.520Z,53.90
2019-05-07T16:44:38.856Z,54.90
2019-05-07T16:47:09.224Z,55.00
2019-05-07T16:49:39.553Z,55.50
2019-05-07T16:52:11.871Z,54.80
2019-05-07T16:54:44.869Z,55.50
2019-05-07T16:57:27.561Z,55.30
2019-05-07T16:59:57.898Z,55.60
2019-05-07T17:02:34.009Z,56.00
2019-05-07T17:05:08.197Z,56.00
2019-05-07T17:07:48.996Z,56.30
2019-05-07T17:10:19.469Z,56.50
2019-05-07T17:12:49.829Z,56.30
2019-05-07T17:15:20.300Z,56.30
2019-05-07T17:17:52.283Z,55.80
2019-05-07T17:20:22.630Z,55.90
2019-05-07T17:22:52.968Z,56.10
2019-05-07T17:25:38.404Z,56.00
2019-05-07T17:28:12.594Z,56.30
2019-05-07T17:30:43.173Z,56.80
2019-05-07T17:33:13.518Z,56.90
2019-05-07T17:35:45.954Z,56.20
2019-05-07T17:38:15.901Z,56.70
2019-05-07T17:40:46.511Z,57.40
2019-05-07T17:43:16.849Z,57.00
2019-05-07T17:45:47.207Z,56.40
2019-05-07T17:48:17.541Z,57.00
2019-05-07T17:51:07.839Z,57.50
2019-05-07T17:53:38.183Z,57.20
2019-05-07T17:56:08.519Z,57.20
2019-05-07T17:58:38.864Z,57.40
2019-05-07T18:01:09.270Z,57.60
2019-05-07T18:03:42.802Z,58.00
2019-05-07T18:06:14.233Z,58.10
2019-05-07T18:08:44.585Z,58.50
2019-05-07T18:11:20.848Z,58.50
2019-05-07T18:13:46.971Z,58.40
2019-05-07T18:16:18.946Z,58.80
2019-05-07T18:18:49.294Z,59.20
2019-05-07T18:21:21.889Z,60.00
2019-05-07T18:23:51.817Z,59.40
2019-05-07T18:26:30.398Z,59.80
2019-05-07T18:28:55.107Z,60.10
2019-05-07T18:31:45.108Z,60.60
2019-05-07T18:34:15.618Z,60.80
2019-05-07T18:36:45.962Z,61.30
2019-05-07T18:39:16.281Z,61.80
2019-05-07T18:41:46.614Z,62.20
2019-05-07T18:44:16.955Z,62.30
2019-05-07T18:46:47.295Z,62.30
2019-05-07T18:49:17.656Z,62.50
2019-05-07T18:51:48.025Z,63.10
2019-05-07T18:54:27.908Z,63.00
2019-05-07T18:56:52.900Z,63.20
2019-05-07T18:59:24.985Z,63.30
2019-05-07T19:01:55.324Z,63.40
2019-05-07T19:04:25.661Z,63.70
2019-05-07T19:06:56.002Z,64.00
2019-05-07T19:09:26.349Z,64.30
2019-05-07T19:11:56.679Z,64.50
2019-05-07T19:14:27.022Z,64.70
2019-05-07T19:16:57.362Z,65.30
2019-05-07T19:19:27.706Z,66.30
2019-05-07T19:21:58.045Z,67.50
2019-05-07T19:24:42.269Z,68.30
2019-05-07T19:27:02.159Z,68.50
2019-05-07T19:29:33.932Z,69.30
2019-05-07T19:32:05.916Z,70.50
2019-05-07T19:34:37.332Z,71.40
2019-05-07T19:37:07.681Z,73.20
2019-05-07T19:39:38.010Z,73.90
2019-05-07T19:42:08.364Z,74.60
2019-05-07T19:44:38.705Z,75.10
2019-05-07T19:47:09.036Z,75.50
2019-05-07T19:49:41.731Z,76.10
2019-05-07T19:52:12.411Z,76.50
2019-05-07T19:54:47.147Z,77.00
2019-05-07T20:00:13.606Z,76.80
2019-05-07T20:02:45.588Z,76.60
2019-05-07T20:05:16.063Z,76.60
2019-05-07T20:07:46.391Z,76.60
2019-05-07T20:10:18.520Z,76.50
2019-05-07T20:12:48.853Z,76.50
2019-05-07T20:15:19.191Z,76.40
2019-05-07T20:17:49.639Z,77.00
2019-05-07T20:20:22.022Z,77.30
2019-05-07T20:22:52.077Z,77.30
2019-05-07T20:25:22.680Z,77.10
2019-05-07T20:27:53.037Z,76.80
2019-05-07T20:30:23.393Z,76.90
2019-05-07T20:32:53.720Z,76.80
2019-05-07T20:35:24.057Z,76.90
2019-05-07T20:37:54.453Z,76.90
2019-05-07T20:40:24.807Z,76.90
2019-05-07T20:42:55.145Z,77.30
2019-05-07T20:45:25.499Z,77.40
2019-05-07T20:47:55.832Z,77.50
2019-05-07T20:50:26.168Z,77.60
2019-05-07T20:52:56.521Z,78.40
2019-05-07T20:55:34.723Z,78.50
2019-05-07T20:58:05.063Z,78.80
2019-05-07T21:00:35.420Z,78.90
2019-05-07T21:03:19.386Z,79.00
2019-05-07T21:05:53.370Z,79.00
2019-05-07T21:08:23.887Z,79.10
2019-05-07T21:10:54.230Z,79.30
2019-05-07T21:13:31.133Z,79.60
2019-05-07T21:15:57.732Z,79.60
2019-05-07T21:18:28.069Z,80.70
2019-05-07T21:20:58.405Z,80.00
2019-05-07T21:23:28.744Z,80.30
2019-05-07T21:25:59.095Z,81.00
2019-05-07T21:28:29.437Z,81.40
2019-05-07T21:30:59.780Z,81.60
2019-05-07T21:33:32.049Z,82.00
2019-05-07T21:36:02.820Z,82.50
2019-05-07T21:38:33.371Z,83.20
2019-05-07T21:41:03.705Z,84.70
2019-05-07T21:43:35.126Z,84.30
2019-05-07T21:46:05.462Z,84.20
2019-05-07T21:48:35.802Z,83.90
2019-05-07T21:51:25.490Z,84.20
2019-05-07T21:53:57.471Z,84.80
2019-05-07T21:56:41.568Z,85.20
2019-05-07T21:59:19.264Z,85.40
2019-05-07T22:01:52.642Z,85.70
2019-05-07T22:04:35.937Z,85.80
2019-05-07T22:07:07.586Z,85.50
2019-05-07T22:09:37.899Z,86.00
2019-05-07T22:12:08.234Z,86.20
2019-05-07T22:14:38.582Z,86.10
2019-05-07T22:17:09.661Z,85.90
2019-05-07T22:19:42.655Z,85.40
2019-05-07T22:22:13.206Z,85.70
2019-05-07T22:24:43.567Z,85.90
2019-05-07T22:27:14.878Z,85.80
2019-05-07T22:29:57.348Z,85.70
2019-05-07T22:32:29.323Z,85.60
2019-05-07T22:35:02.813Z,85.70
2019-05-07T22:37:34.904Z,85.40
2019-05-07T22:40:12.782Z,85.50
2019-05-07T22:42:51.579Z,85.60
2019-05-07T22:45:22.735Z,85.30
2019-05-07T22:47:53.298Z,85.60
2019-05-07T22:50:23.650Z,85.80
2019-05-07T22:52:54.467Z,85.70
2019-05-07T22:55:24.886Z,85.90
2019-05-07T22:58:02.849Z,86.20
2019-05-07T23:00:34.839Z,86.30
2019-05-07T23:03:05.237Z,86.40
2019-05-07T23:05:35.573Z,86.40
2019-05-07T23:08:09.377Z,86.40
2019-05-07T23:10:39.726Z,86.40
2019-05-07T23:13:10.061Z,86.30
2019-05-07T23:15:42.809Z,86.50
2019-05-07T23:18:13.031Z,86.20
2019-05-07T23:20:43.562Z,86.30
2019-05-07T23:23:14.297Z,86.20
2019-05-07T23:25:44.617Z,86.30
2019-05-07T23:28:14.954Z,86.40
2019-05-07T23:30:45.298Z,85.80
2019-05-07T23:33:15.665Z,85.40
2019-05-07T23:35:45.999Z,85.00
2019-05-07T23:38:16.351Z,84.70
2019-05-07T23:40:57.250Z,84.50
2019-05-07T23:43:27.591Z,84.30
2019-05-07T23:45:57.926Z,84.10
2019-05-07T23:48:28.283Z,83.90
2019-05-07T23:50:58.619Z,84.10
2019-05-07T23:53:28.965Z,83.80
2019-05-07T23:55:59.673Z,83.50
2019-05-07T23:58:32.536Z,83.30
